GVAC/SID METAR and TAF weather

Enter ICAO airport designator
Station Type Date Time Source
GVAC METAR 2019/06/26 22:00 UTC NOAA

GVAC 262200Z 04022KT 9999 BKN013 BKN016 24/20 Q1015 NOSIG


Station Type Date Time Source
GVAC Decoded METAR 2019/06/26 22:00 UTC NOAA

Sal, Cape Verde (GVAC) 16-44N 022-57W 55M
Jun 26, 2019 - 06:00 PM EDT / 2019.06.26 2200 UTC
Wind: from the NE (040 degrees) at 25 MPH (22 KT):0
Visibility: greater than 7 mile(s):0
Sky conditions: mostly cloudy
Temperature: 75 F (24 C)
Dew Point: 68 F (20 C)
Relative Humidity: 78%
Pressure (altimeter): 29.97 in. Hg (1015 hPa)
ob: GVAC 262200Z 04022KT 9999 BKN013 BKN016 24/20 Q1015 NOSIG
cycle: 22

Station Type Date Time Source
GVAC TAF 2019/06/26 18:56 UTC NOAA

TAF GVAC 261700Z 2618/2724 03020KT 9999 SCT013 PROB40
TEMPO 2702/2708 03010KT

Example: see airport list